PLZ weather

Pista Lazaro Cardenas
Mexicali, Baja California, Mexico

Public forecast

Using degrees Celsius for public forecast. Weather courtesy of forecast.io.

Closest aviation weather report (METAR) to Pista Lazaro Cardenas

Closest report is General Rodolfo Sánchez Taboada International Airport, 12.1 nm (22.5 km) W. Retrieved 2020/02/22 21:44 UTC (33 minutes ago):

MMML 222144Z 31017KT 10SM BKN050 21/02 A2993 RMK 8/500

Closest aviation forecast (TAF) to Pista Lazaro Cardenas

Closest forecast is General Rodolfo Sánchez Taboada International Airport, 12.1 nm (22.5 km) W. Retrieved 2020/02/22 18:33 UTC (4 hours ago):

TAF MMML 221631Z 2218/2318 32006KT P6SM SCT040 SCT100 BECMG 2220/2221 25015KT FM230200 32015KT P6SM SCT030 SCT100 BECMG 2305/2306 29010KT FM231200 27015KT 6SM HZ SCT025 TEMPO 2312/2316 BKN025